Time;durP1;ratioP1;P1;durP2;ratioP2;P2;SDS_P1;SDS_P2;PMS_P1;PMS_P2;Temp;Humidity;BMP_temperature;BMP_pressure;BME280_temperature;BME280_humidity;BME280_pressure;Samples;Min_cycle;Max_cycle;Signal;HPM_P1;HPM_P2
2024/01/20 00:05:46;;;;;;;1.98;1.17;;;;;;;16.30;44.96;101921.56;20803081;28;20107;-64
2024/01/20 00:15:48;;;;;;;2.67;1.30;;;;;;;16.29;45.13;101919.84;20852328;28;20048;-64
2024/01/20 00:25:50;;;;;;;1.40;1.00;;;;;;;16.27;44.78;101910.19;20816366;28;20051;-64
2024/01/20 00:35:52;;;;;;;1.85;1.30;;;;;;;16.28;44.95;101919.97;20825394;28;20425;-64
2024/01/20 00:45:54;;;;;;;3.13;1.50;;;;;;;16.25;44.88;101923.69;20846723;28;20049;-65
2024/01/20 00:55:55;;;;;;;2.17;1.40;;;;;;;16.25;44.77;101921.00;20805588;28;20107;-64
2024/01/20 01:05:57;;;;;;;3.35;1.80;;;;;;;16.24;44.69;101930.91;20832720;28;20072;-64
2024/01/20 01:15:59;;;;;;;2.15;1.45;;;;;;;16.29;44.50;101930.59;20818852;28;20056;-64
2024/01/20 01:26:01;;;;;;;3.42;2.17;;;;;;;16.26;44.34;101938.84;20829814;28;20116;-64
2024/01/20 01:36:03;;;;;;;1.95;1.48;;;;;;;16.15;44.16;101927.94;20811064;28;20056;-64
2024/01/20 01:46:05;;;;;;;2.95;1.55;;;;;;;16.26;44.24;101957.66;20803146;28;20135;-64
2024/01/20 01:56:07;;;;;;;2.90;1.83;;;;;;;16.27;44.09;101966.59;20825299;28;20539;-64
2024/01/20 02:06:09;;;;;;;2.70;1.77;;;;;;;16.17;44.02;101960.94;20820266;28;20051;-63
2024/01/20 02:16:11;;;;;;;2.85;1.90;;;;;;;16.24;43.84;101968.53;20840192;28;20401;-64
2024/01/20 02:26:15;;;;;;;2.45;2.25;;;;;;;16.18;43.89;101971.63;20841528;28;20082;-64
2024/01/20 02:36:16;;;;;;;3.15;2.10;;;;;;;16.27;43.93;101982.72;20830903;28;20069;-64
2024/01/20 02:46:18;;;;;;;3.20;2.30;;;;;;;16.27;43.82;101990.78;20834965;28;20068;-64
2024/01/20 02:56:22;;;;;;;2.42;2.22;;;;;;;16.28;43.84;101996.03;20812985;28;20053;-64
2024/01/20 03:06:24;;;;;;;2.47;2.10;;;;;;;16.22;43.43;101991.06;20840046;28;20064;-64
2024/01/20 03:16:26;;;;;;;3.22;2.50;;;;;;;16.21;43.52;102002.78;20813732;28;20053;-64
2024/01/20 03:26:28;;;;;;;3.20;2.55;;;;;;;16.16;43.55;102002.22;20845213;28;20049;-63
2024/01/20 03:36:29;;;;;;;4.10;2.58;;;;;;;16.14;43.29;102004.13;20837440;28;20045;-64
2024/01/20 03:46:31;;;;;;;3.72;2.88;;;;;;;16.17;43.56;102020.06;20848202;28;20041;-64
2024/01/20 03:56:33;;;;;;;3.75;2.70;;;;;;;16.17;43.11;102022.75;20840015;28;20430;-64
2024/01/20 04:06:35;;;;;;;3.60;2.80;;;;;;;16.16;43.27;102031.75;20858913;28;20050;-64
2024/01/20 04:16:37;;;;;;;4.47;3.08;;;;;;;16.14;43.20;102033.69;20799656;28;20065;-63
2024/01/20 04:26:38;;;;;;;3.55;3.03;;;;;;;16.12;43.32;102035.59;20805108;28;20449;-65
2024/01/20 04:36:40;;;;;;;4.55;3.20;;;;;;;16.11;43.36;102039.25;20816914;28;20586;-66
2024/01/20 04:46:42;;;;;;;4.50;3.20;;;;;;;16.11;43.22;102044.63;20830835;28;20491;-64
2024/01/20 04:56:44;;;;;;;4.75;3.30;;;;;;;16.08;43.26;102054.59;20827593;28;20642;-63
2024/01/20 05:06:46;;;;;;;4.20;3.38;;;;;;;16.06;43.07;102059.22;20798370;28;20053;-64
2024/01/20 05:16:48;;;;;;;4.72;3.90;;;;;;;16.04;42.94;102061.13;20853634;28;20513;-64
2024/01/20 05:26:49;;;;;;;5.05;4.13;;;;;;;16.03;42.96;102070.16;20815036;28;20046;-64
2024/01/20 05:36:51;;;;;;;5.57;4.50;;;;;;;15.99;42.88;102084.72;20816423;28;20079;-63
2024/01/20 05:46:53;;;;;;;5.88;4.28;;;;;;;15.88;42.95;102063.91;20814411;28;20591;-63
2024/01/20 05:56:55;;;;;;;6.60;4.28;;;;;;;15.94;42.72;102085.00;20829712;28;20047;-64
2024/01/20 06:06:57;;;;;;;6.07;4.30;;;;;;;15.91;42.93;102076.28;20806833;28;20045;-64
2024/01/20 06:16:59;;;;;;;5.30;4.25;;;;;;;15.87;42.76;102072.00;20803707;28;20057;-64
2024/01/20 06:27:00;;;;;;;5.57;4.22;;;;;;;15.81;42.86;102081.31;20808305;28;20107;-64
2024/01/20 06:37:02;;;;;;;5.47;4.32;;;;;;;15.80;42.81;102101.91;20807081;28;20049;-64
2024/01/20 06:47:07;;;;;;;5.80;4.45;;;;;;;15.79;42.63;102113.63;20821575;28;20052;-64
2024/01/20 06:57:09;;;;;;;5.63;4.80;;;;;;;15.79;42.73;102135.09;20839854;28;20049;-64
2024/01/20 07:07:12;;;;;;;5.53;4.30;;;;;;;15.74;42.81;102139.88;20812783;28;20049;-63
2024/01/20 07:17:14;;;;;;;6.50;4.95;;;;;;;15.71;43.03;102144.59;20814321;28;20513;-65
2024/01/20 07:27:15;;;;;;;6.53;4.60;;;;;;;15.78;43.00;102143.28;20838647;28;20515;-65
2024/01/20 07:37:17;;;;;;;4.90;4.20;;;;;;;16.06;44.78;102153.22;20817503;28;20052;-67
2024/01/20 07:47:21;;;;;;;6.55;4.20;;;;;;;16.41;44.48;102157.38;20814538;28;20520;-65
2024/01/20 07:57:23;;;;;;;5.38;4.20;;;;;;;16.66;43.92;102170.13;20851689;28;20394;-64
2024/01/20 08:07:25;;;;;;;6.25;3.92;;;;;;;16.84;43.55;102156.50;20879396;28;20048;-66
2024/01/20 08:17:26;;;;;;;5.63;3.83;;;;;;;17.02;43.26;102164.38;20842194;28;20053;-65
2024/01/20 08:27:28;;;;;;;5.15;4.13;;;;;;;17.24;42.79;102178.16;20822980;28;20056;-63
2024/01/20 08:37:30;;;;;;;5.30;3.65;;;;;;;17.44;42.45;102196.63;20878681;28;20055;-64
2024/01/20 08:47:32;;;;;;;5.93;4.55;;;;;;;17.73;41.91;102208.16;20819677;28;20052;-65
2024/01/20 08:57:34;;;;;;;4.30;3.60;;;;;;;17.79;41.60;102198.78;20845620;28;20440;-63
2024/01/20 09:07:36;;;;;;;5.93;4.30;;;;;;;17.97;41.17;102224.50;20878962;28;20061;-63
2024/01/20 09:17:38;;;;;;;4.35;3.65;;;;;;;17.92;41.09;102239.25;20825333;28;20059;-63
2024/01/20 09:27:40;;;;;;;5.78;3.80;;;;;;;17.87;41.42;102252.16;20811300;28;20049;-63
2024/01/20 09:37:42;;;;;;;4.10;3.60;;;;;;;17.88;41.33;102264.66;20814509;28;20136;-63
2024/01/20 09:47:44;;;;;;;4.65;3.40;;;;;;;17.91;41.49;102268.03;20827246;28;20052;-63
2024/01/20 09:57:47;;;;;;;4.88;3.88;;;;;;;18.07;41.07;102273.25;20843474;28;20049;-63
2024/01/20 10:07:48;;;;;;;4.40;3.70;;;;;;;18.20;40.61;102277.84;20856033;28;20390;-63
2024/01/20 10:17:50;;;;;;;5.80;3.20;;;;;;;18.23;40.64;102272.22;20838338;28;20048;-63
2024/01/20 10:27:52;;;;;;;5.00;3.50;;;;;;;18.25;40.36;102289.16;20807529;28;20041;-63
2024/01/20 10:37:58;;;;;;;4.60;3.42;;;;;;;18.19;40.47;102297.66;20863965;28;20523;-63
2024/01/20 10:48:07;;;;;;;4.78;3.35;;;;;;;18.22;40.43;102298.31;20871029;28;20048;-64
2024/01/20 10:58:15;;;;;;;3.22;2.60;;;;;;;18.06;40.39;102274.22;20855041;28;20100;-63
2024/01/20 11:08:25;;;;;;;4.40;3.47;;;;;;;18.20;40.25;102294.84;20853761;28;20048;-63
2024/01/20 11:18:27;;;;;;;3.78;3.40;;;;;;;18.21;40.25;102293.03;20869963;28;20130;-63
2024/01/20 11:28:31;;;;;;;4.13;3.40;;;;;;;18.14;40.39;102292.56;20812583;28;20049;-66
2024/01/20 11:38:33;;;;;;;3.80;3.22;;;;;;;18.09;40.34;102284.78;20792990;28;20057;-63
2024/01/20 11:48:35;;;;;;;3.78;3.17;;;;;;;18.04;40.51;102278.84;20830512;28;20052;-63
2024/01/20 11:58:37;;;;;;;4.63;3.10;;;;;;;18.01;40.56;102281.75;20841860;28;20056;-66
2024/01/20 12:08:40;;;;;;;3.92;3.17;;;;;;;18.04;40.36;102260.00;20849954;28;20053;-65
2024/01/20 12:18:43;;;;;;;3.47;2.80;;;;;;;18.13;40.22;102257.66;20819193;28;20072;-66
2024/01/20 12:28:46;;;;;;;3.60;2.95;;;;;;;18.05;40.40;102239.31;20847232;28;20053;-66
2024/01/20 12:38:49;;;;;;;4.63;3.35;;;;;;;17.93;40.51;102233.75;20809076;28;20045;-66
2024/01/20 12:48:50;;;;;;;3.20;2.90;;;;;;;18.01;40.46;102233.25;20812317;28;20449;-66
2024/01/20 12:58:52;;;;;;;3.08;2.78;;;;;;;18.13;40.75;102228.00;20842212;28;20049;-67
2024/01/20 13:08:54;;;;;;;3.28;2.60;;;;;;;18.28;40.68;102232.34;20814029;28;20056;-67
2024/01/20 13:18:58;;;;;;;3.10;2.70;;;;;;;18.23;40.59;102221.84;20822926;28;20049;-67
2024/01/20 13:29:00;;;;;;;3.88;2.80;;;;;;;18.40;40.69;102244.94;20849401;28;20420;-68
2024/01/20 13:39:04;;;;;;;3.63;2.60;;;;;;;18.51;40.95;102246.03;20836787;28;20119;-67
2024/01/20 13:49:06;;;;;;;3.80;2.40;;;;;;;18.49;41.57;102237.19;20812527;28;20490;-66
2024/01/20 13:59:12;;;;;;;3.47;2.55;;;;;;;18.49;41.74;102239.88;20820260;28;20058;-64
2024/01/20 14:09:14;;;;;;;2.67;2.33;;;;;;;18.47;43.19;102236.44;20812684;28;20055;-64
2024/01/20 14:19:18;;;;;;;3.37;2.60;;;;;;;18.55;42.94;102242.16;20813779;28;20061;-63
2024/01/20 14:29:20;;;;;;;3.25;2.55;;;;;;;18.54;42.84;102268.25;20815344;28;20041;-64
2024/01/20 14:39:23;;;;;;;3.13;2.03;;;;;;;18.45;42.58;102257.25;20828534;28;20058;-64
2024/01/20 14:49:25;;;;;;;2.95;2.42;;;;;;;18.33;42.52;102265.22;20828459;28;20136;-64
2024/01/20 14:59:27;;;;;;;4.85;2.65;;;;;;;18.24;42.33;102265.88;20796395;28;20118;-64
2024/01/20 15:09:29;;;;;;;3.33;2.35;;;;;;;18.17;42.35;102269.97;20797419;28;20042;-64
2024/01/20 15:19:31;;;;;;;3.42;2.38;;;;;;;18.04;42.21;102278.00;20821370;28;20399;-67
2024/01/20 15:29:33;;;;;;;3.67;2.53;;;;;;;17.93;42.31;102276.88;20837094;28;20437;-67
2024/01/20 15:39:35;;;;;;;3.63;2.28;;;;;;;17.86;42.25;102282.75;20840101;28;20049;-65
2024/01/20 15:49:37;;;;;;;3.70;2.30;;;;;;;17.82;42.69;102268.63;20810227;28;20060;-65
2024/01/20 15:59:39;;;;;;;3.25;2.22;;;;;;;17.85;42.66;102270.25;20825860;28;20048;-67
2024/01/20 16:09:44;;;;;;;4.95;2.47;;;;;;;17.87;42.94;102271.88;20804083;28;20049;-69
2024/01/20 16:19:46;;;;;;;4.47;2.50;;;;;;;17.84;43.24;102264.00;20808243;28;20053;-67
2024/01/20 16:29:48;;;;;;;2.97;2.30;;;;;;;17.90;45.19;102273.50;20811001;28;20452;-67
2024/01/20 16:39:50;;;;;;;3.38;2.53;;;;;;;18.02;47.60;102272.69;20799427;28;20053;-67
2024/01/20 16:49:52;;;;;;;3.13;2.58;;;;;;;18.12;49.42;102272.94;20804458;28;20188;-67
2024/01/20 16:59:55;;;;;;;3.67;2.30;;;;;;;18.11;48.93;102258.59;20802450;28;20494;-65
2024/01/20 17:09:57;;;;;;;2.65;2.35;;;;;;;18.15;48.08;102256.56;20809114;28;20490;-69
2024/01/20 17:19:58;;;;;;;4.50;2.70;;;;;;;18.16;47.50;102262.84;20804278;28;20053;-69
2024/01/20 17:30:00;;;;;;;4.30;2.70;;;;;;;17.96;47.06;102249.72;20804137;28;20053;-69
2024/01/20 17:40:05;;;;;;;3.28;2.65;;;;;;;17.64;46.76;102235.69;20796877;28;20052;-72
2024/01/20 17:50:07;;;;;;;3.65;2.75;;;;;;;17.54;46.83;102263.22;20807654;28;20053;-71
2024/01/20 18:00:10;;;;;;;4.95;3.00;;;;;;;17.51;46.54;102254.50;20787684;28;20076;-71
2024/01/20 18:10:21;;;;;;;4.03;3.00;;;;;;;17.39;46.41;102258.88;20803150;28;20106;-70
2024/01/20 18:20:23;;;;;;;5.35;3.35;;;;;;;17.24;46.02;102263.41;20842834;28;20476;-73
2024/01/20 18:30:25;;;;;;;6.03;3.80;;;;;;;16.98;46.61;102240.84;20798034;28;20063;-71
2024/01/20 18:40:27;;;;;;;5.00;3.38;;;;;;;17.04;46.14;102245.84;20827014;28;20052;-72
2024/01/20 18:50:29;;;;;;;5.50;4.63;;;;;;;16.96;45.93;102252.56;20813405;28;20053;-71
2024/01/20 19:00:30;;;;;;;3.85;2.92;;;;;;;16.88;45.77;102248.59;20850732;28;20497;-71
2024/01/20 19:10:32;;;;;;;5.60;3.30;;;;;;;16.78;45.47;102249.19;20829180;28;20181;-71
2024/01/20 19:20:39;;;;;;;3.78;3.00;;;;;;;16.73;45.13;102247.72;20834439;28;20548;-71
2024/01/20 19:30:41;;;;;;;5.55;3.00;;;;;;;16.74;44.64;102238.72;20788896;28;20048;-72
2024/01/20 19:40:43;;;;;;;4.82;2.90;;;;;;;16.73;44.54;102232.47;20824118;28;20493;-72
2024/01/20 19:50:45;;;;;;;4.13;3.00;;;;;;;16.69;44.20;102222.88;20807241;28;20053;-72
2024/01/20 20:00:49;;;;;;;3.70;2.70;;;;;;;16.72;44.10;102230.75;20796007;28;20053;-71
2024/01/20 20:10:52;;;;;;;3.60;2.67;;;;;;;16.67;43.84;102214.88;20786862;28;20050;-71
2024/01/20 20:20:53;;;;;;;3.60;2.80;;;;;;;16.63;43.69;102210.66;20828206;28;20053;-70
2024/01/20 20:30:56;;;;;;;4.93;2.45;;;;;;;16.59;43.26;102195.69;20802468;28;20053;-70
2024/01/20 20:41:09;;;;;;;3.13;2.47;;;;;;;16.58;42.97;102177.00;20842621;28;20523;-74
2024/01/20 20:51:11;;;;;;;3.45;2.70;;;;;;;16.57;42.53;102181.47;20836297;28;20496;-74
2024/01/20 21:01:13;;;;;;;3.17;2.22;;;;;;;16.52;42.32;102172.84;20833985;28;20044;-74
2024/01/20 21:11:15;;;;;;;3.55;2.38;;;;;;;16.48;41.84;102160.56;20832683;28;20136;-74
2024/01/20 21:21:17;;;;;;;3.17;2.50;;;;;;;16.45;41.65;102147.31;20824236;28;20048;-74
2024/01/20 21:31:19;;;;;;;2.60;2.22;;;;;;;16.38;41.41;102139.63;20829841;28;20410;-74
2024/01/20 21:41:21;;;;;;;3.65;2.65;;;;;;;16.34;41.34;102140.75;20814221;28;20531;-74
2024/01/20 21:51:22;;;;;;;2.97;2.55;;;;;;;16.33;41.01;102136.34;20816759;28;20053;-74
2024/01/20 22:01:24;;;;;;;2.15;1.92;;;;;;;16.22;41.01;102106.59;20811435;28;20493;-73
2024/01/20 22:11:28;;;;;;;2.83;2.20;;;;;;;16.30;40.96;102119.56;20818534;28;20049;-74
2024/01/20 22:21:29;;;;;;;2.70;2.33;;;;;;;16.13;40.71;102080.31;20834535;28;20049;-74
2024/01/20 22:31:31;;;;;;;2.72;2.20;;;;;;;16.25;40.53;102087.59;20819886;28;20037;-73
2024/01/20 22:41:33;;;;;;;2.95;2.63;;;;;;;16.24;40.45;102093.94;20817328;28;20053;-74
2024/01/20 22:51:35;;;;;;;3.03;2.17;;;;;;;16.24;40.34;102088.56;20854592;28;20053;-74
2024/01/20 23:01:38;;;;;;;3.10;2.63;;;;;;;16.23;40.04;102085.03;20806254;28;20844;-73
2024/01/20 23:11:40;;;;;;;3.42;2.63;;;;;;;16.22;40.34;102066.28;20864167;28;20053;-73
2024/01/20 23:21:43;;;;;;;3.80;3.10;;;;;;;16.18;40.01;102045.97;20820393;28;20606;-73
2024/01/20 23:31:45;;;;;;;3.20;2.80;;;;;;;16.16;40.05;102032.66;20815081;28;20451;-73
2024/01/20 23:41:47;;;;;;;3.70;2.85;;;;;;;16.14;39.75;102029.19;20837259;28;20041;-73
2024/01/20 23:51:48;;;;;;;3.38;2.78;;;;;;;16.13;39.89;102026.59;20793326;28;20053;-73
